Time;durP1;ratioP1;P1;durP2;ratioP2;P2;SDS_P1;SDS_P2;PMS_P1;PMS_P2;Temp;Humidity;BMP_temperature;BMP_pressure;BME280_temperature;BME280_humidity;BME280_pressure;Samples;Min_cycle;Max_cycle;Signal;HPM_P1;HPM_P2
2022/03/29 00:00:38;;;;;;;31.17;24.52;;;13.60;99.90;;;;;;5090861;28;20054;-76
2022/03/29 00:03:05;;;;;;;30.30;23.80;;;13.60;99.90;;;;;;5091089;28;20056;-76
2022/03/29 00:05:31;;;;;;;32.55;23.92;;;13.60;99.90;;;;;;5091120;28;20028;-75
2022/03/29 00:07:57;;;;;;;30.48;24.23;;;13.60;99.90;;;;;;5076663;28;20370;-75
2022/03/29 00:10:23;;;;;;;31.75;24.27;;;13.60;99.90;;;;;;5091272;28;20081;-75
2022/03/29 00:12:53;;;;;;;30.52;24.13;;;13.60;99.90;;;;;;5091150;28;20036;-75
2022/03/29 00:15:23;;;;;;;33.60;24.35;;;13.50;99.90;;;;;;5091105;28;20028;-75
2022/03/29 00:17:49;;;;;;;31.60;23.70;;;13.60;99.90;;;;;;5091228;28;20396;-75
2022/03/29 00:20:19;;;;;;;29.10;23.23;;;13.60;99.90;;;;;;5093517;28;20016;-75
2022/03/29 00:22:47;;;;;;;30.85;24.00;;;13.70;99.90;;;;;;5092952;28;20021;-76
2022/03/29 00:25:14;;;;;;;31.90;23.65;;;13.70;99.90;;;;;;5090742;28;20485;-75
2022/03/29 00:27:40;;;;;;;34.03;25.05;;;13.60;99.90;;;;;;5091124;28;20047;-74
2022/03/29 00:30:09;;;;;;;31.42;23.85;;;13.60;99.90;;;;;;5091241;28;20072;-75
2022/03/29 00:32:35;;;;;;;28.55;24.33;;;13.60;99.90;;;;;;5091106;28;20055;-75
2022/03/29 00:35:02;;;;;;;29.40;23.98;;;13.50;99.90;;;;;;5093796;28;20477;-75
2022/03/29 00:37:28;;;;;;;32.67;23.58;;;13.50;99.90;;;;;;5091389;28;20028;-75
2022/03/29 00:39:53;;;;;;;29.98;23.63;;;13.50;99.90;;;;;;5090704;28;20024;-75
2022/03/29 00:42:19;;;;;;;29.52;23.23;;;13.60;99.90;;;;;;5090945;28;20047;-75
2022/03/29 00:44:45;;;;;;;29.08;23.80;;;13.50;99.90;;;;;;5090769;28;20035;-75
2022/03/29 00:47:11;;;;;;;31.02;23.80;;;13.50;99.90;;;;;;5075038;28;20032;-75
2022/03/29 00:49:37;;;;;;;28.35;22.95;;;13.50;99.90;;;;;;5091895;28;20052;-75
2022/03/29 00:52:04;;;;;;;29.58;22.90;;;13.40;99.90;;;;;;5090297;28;20036;-75
2022/03/29 00:54:34;;;;;;;29.08;23.33;;;13.40;99.90;;;;;;5090314;28;20020;-75
2022/03/29 00:57:01;;;;;;;28.48;22.90;;;13.40;99.90;;;;;;5090694;28;20035;-75
2022/03/29 00:59:27;;;;;;;32.60;24.15;;;13.30;99.90;;;;;;5056566;28;20373;-75
2022/03/29 01:01:54;;;;;;;28.20;23.75;;;13.20;99.90;;;;;;5093554;28;20028;-75
2022/03/29 01:04:23;;;;;;;28.60;22.92;;;13.30;99.90;;;;;;5090664;28;20435;-74
2022/03/29 01:06:48;;;;;;;32.00;23.48;;;13.30;99.90;;;;;;5089912;28;20072;-75
2022/03/29 01:09:14;;;;;;;31.05;23.92;;;13.30;99.90;;;;;;5091709;28;20047;-75
2022/03/29 01:11:41;;;;;;;26.30;22.98;;;13.30;99.90;;;;;;5090765;28;20039;-75
2022/03/29 01:14:07;;;;;;;29.67;23.13;;;13.40;99.90;;;;;;5092289;28;20020;-75
2022/03/29 01:19:20;;;;;;;30.35;23.73;;;13.40;99.90;;;;;;5090231;28;20084;-75
2022/03/29 01:22:01;;;;;;;30.25;23.10;;;13.40;99.90;;;;;;5089996;28;20032;-76
2022/03/29 01:24:28;;;;;;;31.05;23.48;;;13.30;99.90;;;;;;5089910;28;20054;-75
2022/03/29 01:26:57;;;;;;;29.17;23.00;;;13.30;99.90;;;;;;5089931;28;20052;-75
2022/03/29 01:29:23;;;;;;;31.92;23.52;;;13.30;99.90;;;;;;5072999;28;20028;-75
2022/03/29 01:31:50;;;;;;;32.17;24.20;;;13.30;99.90;;;;;;5092403;28;20081;-75
2022/03/29 01:34:20;;;;;;;29.85;24.08;;;13.30;99.90;;;;;;5089902;28;20024;-74
2022/03/29 01:36:47;;;;;;;28.33;23.35;;;13.30;99.90;;;;;;5089412;28;20039;-75
2022/03/29 01:39:14;;;;;;;31.58;23.67;;;13.40;99.90;;;;;;5105251;28;20028;-75
2022/03/29 01:41:39;;;;;;;31.95;23.80;;;13.20;99.90;;;;;;5071763;28;20393;-75
2022/03/29 01:44:07;;;;;;;30.95;23.17;;;13.20;99.90;;;;;;5074287;28;20073;-75
2022/03/29 01:46:33;;;;;;;34.28;23.48;;;13.10;99.90;;;;;;5092019;28;20024;-75
2022/03/29 01:49:03;;;;;;;29.42;23.83;;;13.10;99.90;;;;;;5089157;28;20162;-75
2022/03/29 01:51:29;;;;;;;33.00;27.33;;;13.10;99.90;;;;;;5089012;28;20040;-75
2022/03/29 01:53:56;;;;;;;42.42;28.52;;;12.80;99.90;;;;;;5089525;28;20141;-75
2022/03/29 01:56:25;;;;;;;34.15;27.27;;;12.60;99.90;;;;;;5090965;28;20036;-75
2022/03/29 01:58:51;;;;;;;34.92;27.33;;;12.50;99.90;;;;;;5092526;28;20511;-75
2022/03/29 02:01:17;;;;;;;35.20;28.25;;;12.40;99.90;;;;;;5089193;28;20024;-75
2022/03/29 02:03:42;;;;;;;38.92;28.40;;;12.40;99.90;;;;;;5089100;28;20094;-75
2022/03/29 02:06:08;;;;;;;34.47;28.20;;;12.30;99.90;;;;;;5089142;28;20059;-75
2022/03/29 02:08:34;;;;;;;35.58;28.45;;;12.40;99.90;;;;;;5089170;28;20076;-75
2022/03/29 02:11:00;;;;;;;32.90;27.27;;;12.30;99.90;;;;;;5091835;28;20031;-75
2022/03/29 02:13:26;;;;;;;37.83;28.80;;;12.20;99.90;;;;;;5088978;28;20032;-75
2022/03/29 02:15:52;;;;;;;37.08;29.45;;;12.20;99.90;;;;;;5088955;28;20374;-75
2022/03/29 02:18:18;;;;;;;38.92;28.73;;;12.20;99.90;;;;;;5088936;28;20028;-75
2022/03/29 02:20:44;;;;;;;36.05;28.63;;;12.20;99.90;;;;;;5089047;28;20034;-75
2022/03/29 02:23:14;;;;;;;36.75;29.27;;;12.20;99.90;;;;;;5091353;28;20024;-75
2022/03/29 02:25:40;;;;;;;40.42;30.77;;;12.20;99.90;;;;;;5090150;28;20083;-75
2022/03/29 02:28:06;;;;;;;38.25;28.90;;;12.10;99.90;;;;;;5090501;28;20074;-75
2022/03/29 02:30:36;;;;;;;41.25;29.48;;;12.10;99.90;;;;;;5070731;28;20032;-75
2022/03/29 02:33:03;;;;;;;39.58;31.02;;;12.00;99.90;;;;;;5071134;28;20459;-75
2022/03/29 02:35:28;;;;;;;35.35;29.55;;;11.90;99.90;;;;;;5055009;28;20523;-75
2022/03/29 02:37:54;;;;;;;42.15;33.28;;;12.00;99.90;;;;;;5091913;28;20020;-75
2022/03/29 02:40:20;;;;;;;42.20;32.63;;;11.90;99.90;;;;;;5070689;28;20472;-75
2022/03/29 02:42:53;;;;;;;42.00;32.70;;;11.90;99.90;;;;;;5088960;28;20563;-75
2022/03/29 02:45:24;;;;;;;46.67;34.53;;;11.90;99.90;;;;;;5088581;28;20048;-75
2022/03/29 02:47:53;;;;;;;49.40;34.78;;;12.00;99.90;;;;;;5088097;28;20032;-75
2022/03/29 02:50:20;;;;;;;50.53;38.03;;;11.90;99.90;;;;;;5089721;28;20043;-75
2022/03/29 02:52:47;;;;;;;45.80;33.75;;;11.90;99.90;;;;;;5090653;28;20028;-75
2022/03/29 02:55:14;;;;;;;45.80;33.28;;;11.80;99.90;;;;;;5088329;28;20028;-76
2022/03/29 02:57:41;;;;;;;43.47;33.05;;;11.90;99.90;;;;;;5088293;28;20035;-75
2022/03/29 03:00:07;;;;;;;45.63;31.08;;;12.00;99.90;;;;;;5088325;28;20028;-75
2022/03/29 03:02:33;;;;;;;40.60;29.88;;;12.00;99.90;;;;;;5088019;28;20397;-75
2022/03/29 03:05:00;;;;;;;41.28;31.15;;;12.20;99.90;;;;;;5092380;28;20032;-75
2022/03/29 03:07:26;;;;;;;36.22;27.17;;;12.20;99.90;;;;;;5089880;28;20149;-75
2022/03/29 03:09:53;;;;;;;36.08;25.05;;;12.20;99.90;;;;;;5088492;28;20028;-75
2022/03/29 03:12:19;;;;;;;29.60;23.67;;;12.30;99.90;;;;;;5088241;28;20496;-75
2022/03/29 03:14:44;;;;;;;31.50;23.10;;;12.30;99.90;;;;;;5088164;28;20023;-75
2022/03/29 03:17:10;;;;;;;30.92;23.95;;;12.30;99.90;;;;;;5090354;28;20020;-75
2022/03/29 03:19:36;;;;;;;33.17;24.65;;;12.30;99.90;;;;;;5089222;28;20054;-74
2022/03/29 03:22:02;;;;;;;32.45;25.05;;;12.40;99.90;;;;;;5088471;28;20038;-75
2022/03/29 03:24:28;;;;;;;35.58;23.80;;;12.40;99.90;;;;;;5091845;28;20027;-75
2022/03/29 03:26:54;;;;;;;31.88;23.83;;;12.50;99.90;;;;;;5092471;28;20051;-74
2022/03/29 03:29:20;;;;;;;33.78;24.75;;;12.60;99.90;;;;;;5093430;28;20067;-75
2022/03/29 03:31:45;;;;;;;32.50;24.85;;;12.70;99.90;;;;;;5093788;28;20085;-74
2022/03/29 03:34:11;;;;;;;31.85;24.45;;;12.70;99.90;;;;;;5092304;28;20024;-75
2022/03/29 03:36:37;;;;;;;30.92;22.52;;;12.80;99.90;;;;;;5092102;28;20028;-75
2022/03/29 03:39:03;;;;;;;32.42;23.13;;;12.80;99.90;;;;;;5073931;28;20024;-74
2022/03/29 03:41:29;;;;;;;33.22;24.33;;;12.80;99.90;;;;;;5092178;28;20482;-75
2022/03/29 03:43:54;;;;;;;32.05;22.65;;;12.80;99.90;;;;;;5095019;28;20058;-74
2022/03/29 03:46:20;;;;;;;30.65;23.73;;;12.80;99.90;;;;;;5091746;28;20503;-75
2022/03/29 03:48:46;;;;;;;31.58;23.05;;;12.70;99.90;;;;;;5091779;28;20073;-75
2022/03/29 03:51:11;;;;;;;30.33;23.13;;;12.70;99.90;;;;;;5091835;28;20497;-75
2022/03/29 03:53:37;;;;;;;36.90;23.50;;;12.70;99.90;;;;;;5091960;28;20016;-75
2022/03/29 03:56:03;;;;;;;29.73;22.50;;;12.70;99.90;;;;;;5094669;28;20027;-75
2022/03/29 03:58:29;;;;;;;30.83;23.85;;;12.60;99.90;;;;;;5092219;28;20397;-75
2022/03/29 04:00:55;;;;;;;32.42;23.50;;;12.60;99.90;;;;;;5091396;28;20055;-75
2022/03/29 04:03:20;;;;;;;31.85;22.92;;;12.50;99.90;;;;;;5091377;28;20020;-75
2022/03/29 04:05:46;;;;;;;31.15;22.85;;;12.50;99.90;;;;;;5091704;28;20029;-75
2022/03/29 04:08:12;;;;;;;29.75;22.70;;;12.60;99.90;;;;;;5093687;28;20024;-75
2022/03/29 04:10:40;;;;;;;37.75;23.42;;;12.60;99.90;;;;;;5092859;28;20036;-75
2022/03/29 04:13:05;;;;;;;30.38;22.20;;;12.60;99.90;;;;;;5091220;28;20038;-75
2022/03/29 04:15:31;;;;;;;30.45;22.58;;;12.60;99.90;;;;;;5090762;28;20111;-75
2022/03/29 04:17:59;;;;;;;27.65;21.67;;;12.60;99.90;;;;;;5091310;28;20064;-75
2022/03/29 04:20:25;;;;;;;27.38;22.20;;;12.70;99.90;;;;;;5092420;28;20036;-74
2022/03/29 04:22:50;;;;;;;28.77;22.42;;;12.70;99.90;;;;;;5093941;28;20031;-75
2022/03/29 04:25:16;;;;;;;30.45;21.63;;;12.70;99.90;;;;;;5091051;28;20434;-75
2022/03/29 04:27:42;;;;;;;26.23;21.33;;;12.60;99.90;;;;;;5091249;28;20024;-75
2022/03/29 04:30:09;;;;;;;26.42;19.75;;;12.60;99.90;;;;;;5090557;28;20034;-74
2022/03/29 04:32:37;;;;;;;28.73;20.50;;;12.60;99.90;;;;;;5091112;28;20047;-74
2022/03/29 04:35:03;;;;;;;24.90;19.95;;;12.60;99.90;;;;;;5093376;28;20032;-75
2022/03/29 04:37:29;;;;;;;28.30;20.70;;;12.50;99.90;;;;;;5091573;28;20396;-74
2022/03/29 04:39:55;;;;;;;26.15;20.33;;;12.50;99.90;;;;;;5091309;28;20025;-75
2022/03/29 04:42:20;;;;;;;27.10;20.17;;;12.50;99.90;;;;;;5090676;28;20013;-75
2022/03/29 04:44:46;;;;;;;27.90;19.55;;;12.50;99.90;;;;;;5090814;28;20473;-75
2022/03/29 04:47:12;;;;;;;27.42;19.17;;;12.50;99.90;;;;;;5092823;28;20077;-75
2022/03/29 04:49:38;;;;;;;26.50;19.35;;;12.50;99.90;;;;;;5092053;28;20063;-75
2022/03/29 04:52:06;;;;;;;25.85;19.58;;;12.50;99.90;;;;;;5090646;28;20200;-75
2022/03/29 04:54:31;;;;;;;27.85;18.85;;;12.40;99.90;;;;;;5090556;28;20024;-75
2022/03/29 04:57:00;;;;;;;25.02;19.25;;;12.40;99.90;;;;;;5090388;28;20055;-76
2022/03/29 04:59:26;;;;;;;27.63;18.95;;;12.40;99.90;;;;;;5090803;28;20023;-73
2022/03/29 05:01:52;;;;;;;26.77;19.15;;;12.50;99.90;;;;;;5093134;28;20392;-74
2022/03/29 05:04:18;;;;;;;22.55;18.13;;;12.30;99.90;;;;;;5092194;28;20024;-74
2022/03/29 05:06:44;;;;;;;27.90;19.45;;;12.40;99.90;;;;;;5090165;28;20501;-74
2022/03/29 05:09:10;;;;;;;27.73;19.15;;;12.50;99.90;;;;;;5090276;28;20123;-73
2022/03/29 05:11:36;;;;;;;25.15;18.40;;;12.50;99.60;;;;;;5090013;28;20082;-74
2022/03/29 05:14:02;;;;;;;27.08;18.38;;;12.40;99.20;;;;;;5093458;28;20047;-75
2022/03/29 05:16:27;;;;;;;24.88;18.40;;;12.40;99.30;;;;;;5090566;28;20063;-75
2022/03/29 05:18:53;;;;;;;24.60;18.35;;;12.40;98.80;;;;;;5090169;28;20457;-75
2022/03/29 05:21:19;;;;;;;27.75;18.35;;;12.40;98.70;;;;;;5089864;28;20505;-75
2022/03/29 05:23:45;;;;;;;22.23;17.88;;;12.20;99.70;;;;;;5090056;28;20115;-74
2022/03/29 05:26:11;;;;;;;27.67;19.00;;;12.20;99.90;;;;;;5091758;28;20039;-75
2022/03/29 05:28:36;;;;;;;23.95;18.13;;;12.10;99.90;;;;;;5091059;28;20020;-74
2022/03/29 05:31:02;;;;;;;26.85;18.88;;;12.00;99.80;;;;;;5089756;28;20034;-73
2022/03/29 05:33:28;;;;;;;27.77;19.13;;;12.00;99.90;;;;;;5089813;28;20126;-74
2022/03/29 05:35:54;;;;;;;25.60;19.48;;;12.00;99.90;;;;;;5090444;28;20030;-75
2022/03/29 05:38:20;;;;;;;27.15;18.50;;;12.00;99.90;;;;;;5091290;28;21017;-74
2022/03/29 05:40:45;;;;;;;25.88;18.65;;;12.00;99.90;;;;;;5091536;28;20086;-74
2022/03/29 05:43:11;;;;;;;27.75;19.08;;;12.00;99.90;;;;;;5089039;28;20999;-75
2022/03/29 05:45:38;;;;;;;25.30;19.30;;;12.00;99.90;;;;;;5089375;28;20039;-74
2022/03/29 05:50:49;;;;;;;30.92;19.20;;;12.10;99.90;;;;;;5089302;28;20126;-74
2022/03/29 05:53:15;;;;;;;24.08;18.42;;;12.10;99.90;;;;;;5092284;28;20044;-74
2022/03/29 05:55:41;;;;;;;26.98;18.75;;;12.20;99.90;;;;;;5090518;28;20073;-75
2022/03/29 05:58:06;;;;;;;26.42;19.95;;;12.10;99.90;;;;;;5088820;28;20039;-76
2022/03/29 06:00:32;;;;;;;33.60;22.50;;;12.10;99.90;;;;;;5089194;28;20563;-75
2022/03/29 06:02:58;;;;;;;33.88;25.38;;;12.10;99.90;;;;;;5089242;28;20039;-75
2022/03/29 06:05:24;;;;;;;48.63;28.48;;;11.80;99.90;;;;;;5090510;28;20024;-74
2022/03/29 06:07:50;;;;;;;47.58;28.42;;;11.60;99.90;;;;;;5091643;28;20035;-74
2022/03/29 06:10:16;;;;;;;44.83;27.25;;;11.50;99.90;;;;;;5089016;28;20028;-74
2022/03/29 06:12:45;;;;;;;46.35;28.45;;;11.40;99.90;;;;;;5070932;28;20093;-74
2022/03/29 06:15:12;;;;;;;43.13;27.17;;;11.40;99.90;;;;;;5088618;28;20028;-74
2022/03/29 06:17:38;;;;;;;39.63;28.27;;;11.40;99.90;;;;;;5089110;28;20060;-74
2022/03/29 06:20:06;;;;;;;38.78;27.05;;;11.40;99.90;;;;;;5091948;28;20448;-74
2022/03/29 06:22:36;;;;;;;35.30;25.55;;;11.30;99.90;;;;;;5089436;28;20634;-74
2022/03/29 06:25:02;;;;;;;35.35;24.08;;;11.40;99.90;;;;;;5087963;28;20027;-74
2022/03/29 06:27:28;;;;;;;32.55;23.77;;;11.60;99.90;;;;;;5088389;28;20036;-74
2022/03/29 06:29:56;;;;;;;34.08;23.83;;;11.60;99.90;;;;;;5088430;28;20074;-72
2022/03/29 06:32:25;;;;;;;30.77;22.73;;;11.70;99.90;;;;;;5089452;28;20052;-76
2022/03/29 06:34:51;;;;;;;29.08;22.77;;;11.80;99.90;;;;;;5090701;28;20024;-74
2022/03/29 06:37:17;;;;;;;30.92;22.27;;;11.90;99.90;;;;;;5088363;28;20038;-75
2022/03/29 06:39:43;;;;;;;31.38;23.33;;;11.90;99.90;;;;;;5080493;28;20020;-80
2022/03/29 06:42:09;;;;;;;28.58;20.73;;;12.10;99.90;;;;;;5083738;28;20027;-76
2022/03/29 06:44:34;;;;;;;29.10;22.38;;;12.30;99.90;;;;;;5083027;28;20553;-74
2022/03/29 06:47:03;;;;;;;29.33;19.45;;;12.50;99.90;;;;;;5087246;28;20114;-74
2022/03/29 06:49:29;;;;;;;28.42;20.85;;;12.40;99.90;;;;;;5083951;28;20051;-75
2022/03/29 06:51:55;;;;;;;27.50;20.65;;;12.60;99.60;;;;;;5086573;28;20489;-76
2022/03/29 06:54:21;;;;;;;27.88;20.45;;;12.70;99.90;;;;;;5083092;28;20034;-76
2022/03/29 06:56:47;;;;;;;28.45;20.52;;;12.80;98.80;;;;;;5083466;28;20025;-75
2022/03/29 06:59:13;;;;;;;27.80;20.33;;;12.90;98.50;;;;;;5085550;28;20017;-74
2022/03/29 07:01:38;;;;;;;40.45;23.40;;;13.00;98.60;;;;;;5067405;28;20503;-76
2022/03/29 07:04:07;;;;;;;40.38;25.63;;;12.90;99.90;;;;;;5084132;28;20362;-75
2022/03/29 07:06:33;;;;;;;35.70;24.60;;;12.80;99.90;;;;;;5083436;28;20074;-75
2022/03/29 07:11:45;;;;;;;41.90;27.52;;;12.60;99.90;;;;;;5069676;28;20047;-75
2022/03/29 07:14:12;;;;;;;43.95;28.58;;;12.70;99.90;;;;;;5085789;28;20028;-75
2022/03/29 07:16:39;;;;;;;49.03;29.58;;;12.70;99.90;;;;;;5085339;28;20025;-75
2022/03/29 07:19:09;;;;;;;41.08;27.85;;;12.70;99.90;;;;;;5083836;28;20032;-75
2022/03/29 07:21:39;;;;;;;42.00;26.98;;;12.70;99.90;;;;;;5083553;28;20051;-75
2022/03/29 07:24:09;;;;;;;34.33;25.75;;;12.80;99.90;;;;;;5083359;28;20024;-76
2022/03/29 07:26:36;;;;;;;39.63;26.35;;;12.80;99.90;;;;;;5083707;28;20161;-75
2022/03/29 07:29:03;;;;;;;41.25;28.20;;;12.90;99.90;;;;;;5087145;28;20024;-75
2022/03/29 07:31:29;;;;;;;42.40;28.05;;;13.10;99.90;;;;;;5084765;28;20122;-75
2022/03/29 07:33:55;;;;;;;36.80;25.38;;;13.10;99.90;;;;;;5083498;28;20612;-75
2022/03/29 07:36:20;;;;;;;34.47;26.67;;;13.20;99.90;;;;;;5082378;28;20111;-75
2022/03/29 07:38:46;;;;;;;36.17;27.42;;;13.40;99.90;;;;;;5082137;28;20116;-75
2022/03/29 07:41:12;;;;;;;34.83;25.98;;;13.60;99.90;;;;;;5086241;28;20084;-75
2022/03/29 07:43:38;;;;;;;39.10;27.38;;;13.80;99.90;;;;;;5084718;28;20065;-75
2022/03/29 07:46:03;;;;;;;40.60;27.65;;;13.90;99.90;;;;;;5083902;28;20123;-75
2022/03/29 07:48:29;;;;;;;47.50;27.60;;;14.00;99.90;;;;;;5087935;28;20032;-74
2022/03/29 07:50:55;;;;;;;46.67;28.38;;;14.00;99.90;;;;;;5087440;28;20117;-75
2022/03/29 07:53:24;;;;;;;38.95;26.90;;;14.10;99.90;;;;;;5088935;28;20048;-75
2022/03/29 07:55:52;;;;;;;40.47;27.85;;;14.30;99.30;;;;;;5090162;28;20020;-75
2022/03/29 07:58:19;;;;;;;35.75;26.42;;;14.40;99.70;;;;;;5087856;28;20035;-74
2022/03/29 08:00:49;;;;;;;28.60;19.63;;;14.60;98.90;;;;;;5088189;28;20535;-74
2022/03/29 08:03:16;;;;;;;27.25;18.90;;;14.70;97.30;;;;;;5087455;28;20512;-75
2022/03/29 08:05:44;;;;;;;27.65;18.90;;;14.80;97.50;;;;;;5087827;28;20031;-74
2022/03/29 08:08:13;;;;;;;36.90;19.02;;;15.00;98.50;;;;;;5089972;28;20020;-75
2022/03/29 08:10:40;;;;;;;25.08;19.15;;;15.10;98.90;;;;;;5090899;28;20113;-75
2022/03/29 08:13:07;;;;;;;23.05;18.10;;;15.00;98.00;;;;;;5091274;28;20423;-75
2022/03/29 08:15:35;;;;;;;24.98;18.15;;;15.10;99.30;;;;;;5073084;28;20036;-75
2022/03/29 08:18:01;;;;;;;28.17;19.83;;;15.30;99.40;;;;;;5092701;28;20028;-74
2022/03/29 08:20:29;;;;;;;26.08;18.75;;;15.30;99.70;;;;;;5091926;28;20082;-74
2022/03/29 08:22:59;;;;;;;25.88;18.70;;;15.30;99.90;;;;;;5094402;28;20567;-74
2022/03/29 08:25:25;;;;;;;27.58;20.05;;;15.40;99.90;;;;;;5090905;28;20028;-75
2022/03/29 08:27:51;;;;;;;25.65;19.90;;;15.30;99.90;;;;;;5091039;28;20118;-74
2022/03/29 08:30:17;;;;;;;25.98;20.25;;;15.30;99.90;;;;;;5091021;28;20108;-74
2022/03/29 08:32:44;;;;;;;32.40;21.38;;;15.50;99.90;;;;;;5091453;28;20555;-74
2022/03/29 08:35:12;;;;;;;31.02;20.98;;;15.40;99.90;;;;;;5093223;28;20020;-75
2022/03/29 08:37:40;;;;;;;27.77;20.38;;;15.40;99.90;;;;;;5091590;28;20492;-74
2022/03/29 08:40:13;;;;;;;26.75;19.95;;;15.70;99.90;;;;;;5090895;28;20028;-75
2022/03/29 08:42:42;;;;;;;27.60;19.48;;;15.80;99.90;;;;;;5090777;28;20130;-74
2022/03/29 08:45:11;;;;;;;25.08;19.52;;;15.80;99.90;;;;;;5090673;28;20493;-74
2022/03/29 08:47:40;;;;;;;24.92;18.10;;;15.70;99.90;;;;;;5090939;28;20504;-74
2022/03/29 08:50:10;;;;;;;24.90;18.55;;;15.90;99.90;;;;;;5092727;28;20040;-74
2022/03/29 08:52:37;;;;;;;20.70;17.52;;;16.30;99.90;;;;;;5093099;28;20036;-74
2022/03/29 08:55:03;;;;;;;30.02;18.35;;;16.30;99.90;;;;;;5090846;28;20020;-74
2022/03/29 08:57:32;;;;;;;26.30;18.40;;;16.60;99.90;;;;;;5090426;28;20497;-74
2022/03/29 08:59:59;;;;;;;27.35;17.85;;;16.90;99.90;;;;;;5090619;28;20039;-74
2022/03/29 09:02:25;;;;;;;24.70;17.63;;;16.80;99.90;;;;;;5091809;28;20036;-74
2022/03/29 09:05:12;;;;;;;26.52;17.02;;;16.90;99.90;;;;;;5092635;28;20024;-74
2022/03/29 09:07:53;;;;;;;28.40;17.60;;;16.80;99.90;;;;;;5092796;28;20032;-75
2022/03/29 09:10:38;;;;;;;32.15;17.83;;;16.50;99.90;;;;;;5090533;28;20028;-74
2022/03/29 09:13:14;;;;;;;20.58;16.90;;;16.40;99.90;;;;;;5090637;28;20082;-74
2022/03/29 09:15:40;;;;;;;23.02;18.08;;;16.50;99.90;;;;;;5090398;28;20039;-74
2022/03/29 09:18:09;;;;;;;22.33;15.70;;;16.80;99.90;;;;;;5090280;28;20397;-74
2022/03/29 09:20:36;;;;;;;25.05;16.50;;;16.80;99.90;;;;;;5089438;28;20031;-75
2022/03/29 09:23:03;;;;;;;24.15;15.60;;;17.00;99.90;;;;;;5093674;28;20028;-74
2022/03/29 09:25:39;;;;;;;24.83;16.27;;;17.30;99.90;;;;;;5091836;28;20493;-74
2022/03/29 09:28:10;;;;;;;16.27;13.07;;;17.00;99.90;;;;;;5090002;28;20061;-75
2022/03/29 09:30:43;;;;;;;15.85;10.45;;;16.90;99.90;;;;;;5089756;28;20506;-74
2022/03/29 09:33:17;;;;;;;16.98;10.93;;;16.80;99.90;;;;;;5089696;28;20020;-74
2022/03/29 09:36:03;;;;;;;;;;;16.80;99.90;;;;;;5090479;28;20028;-74
2022/03/29 09:38:43;;;;;;;15.80;10.65;;;16.80;99.90;;;;;;5090129;28;19951;-74
2022/03/29 09:41:26;;;;;;;23.85;12.77;;;16.90;99.90;;;;;;5089304;28;20051;-75
2022/03/29 09:44:03;;;;;;;18.92;12.57;;;16.90;99.90;;;;;;5092578;28;20034;-74
2022/03/29 09:46:30;;;;;;;21.10;12.65;;;17.10;99.90;;;;;;5091518;28;20043;-74
2022/03/29 09:49:00;;;;;;;21.30;12.20;;;17.10;99.90;;;;;;5089010;28;20039;-74
2022/03/29 09:51:27;;;;;;;16.40;9.70;;;17.30;99.90;;;;;;5089309;28;20504;-74
2022/03/29 09:53:55;;;;;;;18.63;8.57;;;17.40;99.90;;;;;;5089422;28;20024;-74
2022/03/29 09:56:28;;;;;;;20.48;10.27;;;17.40;99.90;;;;;;5091400;28;20044;-74
2022/03/29 09:59:23;;;;;;;17.27;8.90;;;17.40;99.90;;;;;;5092643;28;20028;-74
2022/03/29 10:01:56;;;;;;;17.23;8.05;;;17.80;99.90;;;;;;5064718;28;20127;-74
2022/03/29 10:04:23;;;;;;;14.95;8.40;;;17.90;99.90;;;;;;5088789;28;20051;-74
2022/03/29 10:06:52;;;;;;;13.48;7.78;;;18.20;99.90;;;;;;5089228;28;20036;-75
2022/03/29 10:09:30;;;;;;;14.40;7.40;;;18.40;99.90;;;;;;5089039;28;20024;-74
2022/03/29 10:12:16;;;;;;;15.00;6.95;;;18.50;99.70;;;;;;5089023;28;20035;-74
2022/03/29 10:14:43;;;;;;;14.77;7.82;;;18.50;99.90;;;;;;5075766;28;20020;-74
2022/03/29 10:17:09;;;;;;;20.45;8.40;;;18.20;99.90;;;;;;5090990;28;20043;-74
2022/03/29 10:19:39;;;;;;;16.58;7.75;;;18.30;99.90;;;;;;5090027;28;20032;-75
2022/03/29 10:22:05;;;;;;;13.70;7.25;;;18.20;99.70;;;;;;5089297;28;20420;-74
2022/03/29 10:24:32;;;;;;;15.82;7.60;;;18.20;99.90;;;;;;5088795;28;20069;-74
2022/03/29 10:27:00;;;;;;;17.55;7.63;;;18.20;99.90;;;;;;5088977;28;20084;-74
2022/03/29 10:29:27;;;;;;;14.73;7.05;;;18.00;99.30;;;;;;5089488;28;20489;-74
2022/03/29 10:32:01;;;;;;;14.57;7.53;;;18.10;99.50;;;;;;5091345;28;20039;-74
2022/03/29 10:34:30;;;;;;;15.63;7.28;;;18.00;99.90;;;;;;5090290;28;20034;-75
2022/03/29 10:37:10;;;;;;;17.02;6.43;;;18.20;99.60;;;;;;5088676;28;20024;-74
2022/03/29 10:39:55;;;;;;;13.57;6.85;;;18.00;99.30;;;;;;5088639;28;20031;-74
2022/03/29 10:42:30;;;;;;;10.88;6.43;;;18.10;99.50;;;;;;5088688;28;20051;-75
2022/03/29 10:45:03;;;;;;;10.18;6.20;;;18.20;99.60;;;;;;5088531;28;20027;-74
2022/03/29 10:47:30;;;;;;;12.98;6.22;;;18.40;99.20;;;;;;5072174;28;20028;-74
2022/03/29 10:49:56;;;;;;;14.45;6.50;;;18.20;99.30;;;;;;5091897;28;20414;-74
2022/03/29 10:52:22;;;;;;;12.10;6.22;;;18.30;99.50;;;;;;5087444;28;20054;-72
2022/03/29 10:54:50;;;;;;;14.65;6.40;;;18.30;98.90;;;;;;5088269;28;20500;-75
2022/03/29 10:57:24;;;;;;;18.35;7.03;;;18.10;98.90;;;;;;5088646;28;20447;-76
2022/03/29 10:59:51;;;;;;;;;;;18.10;99.90;;;;;;5089990;28;20019;-76
2022/03/29 11:02:20;;;;;;;14.23;6.45;;;18.20;99.60;;;;;;5090131;28;19961;-84
2022/03/29 11:05:06;;;;;;;13.95;6.00;;;18.10;99.20;;;;;;5091019;28;20039;-73
2022/03/29 11:07:35;;;;;;;14.23;6.30;;;18.30;98.30;;;;;;5089071;28;20040;-74
2022/03/29 11:10:13;;;;;;;14.98;6.07;;;18.30;97.50;;;;;;5088082;28;20035;-74
2022/03/29 11:12:51;;;;;;;16.63;6.45;;;18.40;97.10;;;;;;5088258;28;20040;-74
2022/03/29 11:15:38;;;;;;;16.08;6.28;;;18.70;96.50;;;;;;5087406;28;20019;-74
2022/03/29 11:18:35;;;;;;;13.75;6.32;;;18.70;96.70;;;;;;5088279;28;20028;-73
2022/03/29 11:21:03;;;;;;;12.13;5.88;;;18.70;97.70;;;;;;5076431;28;20028;-74
2022/03/29 11:23:40;;;;;;;14.02;5.72;;;18.80;96.90;;;;;;5087133;28;20084;-74
2022/03/29 11:26:15;;;;;;;14.55;6.13;;;18.90;97.30;;;;;;5087861;28;20036;-73
2022/03/29 11:28:55;;;;;;;12.38;6.00;;;19.00;98.30;;;;;;5091335;28;20028;-73
2022/03/29 11:31:22;;;;;;;17.83;6.25;;;19.00;96.60;;;;;;5069408;28;20032;-73
2022/03/29 11:33:49;;;;;;;15.18;6.10;;;19.20;96.40;;;;;;5088058;28;20405;-74
2022/03/29 11:36:16;;;;;;;16.02;6.38;;;19.20;95.80;;;;;;5087687;28;20024;-73
2022/03/29 11:38:44;;;;;;;13.60;5.80;;;19.20;95.60;;;;;;5070444;28;20024;-72
2022/03/29 11:41:39;;;;;;;16.58;6.38;;;19.20;94.90;;;;;;5090376;28;20047;-75
2022/03/29 11:44:07;;;;;;;16.30;6.05;;;19.20;93.90;;;;;;5076074;28;20040;-76
2022/03/29 11:46:50;;;;;;;18.40;6.40;;;19.20;93.30;;;;;;5092767;28;20511;-74
2022/03/29 11:49:21;;;;;;;13.32;6.15;;;19.50;93.60;;;;;;5091933;28;20135;-74
2022/03/29 11:52:05;;;;;;;17.15;6.28;;;19.20;92.90;;;;;;5093628;28;20309;-75
2022/03/29 11:54:41;;;;;;;19.55;6.25;;;19.40;93.60;;;;;;5093062;28;20028;-75
2022/03/29 11:57:28;;;;;;;18.25;6.43;;;19.60;92.50;;;;;;5091509;28;20039;-75
2022/03/29 11:59:55;;;;;;;18.98;6.47;;;19.50;91.90;;;;;;5090802;28;20036;-74
2022/03/29 12:02:23;;;;;;;14.57;6.18;;;19.40;92.00;;;;;;5083389;28;20381;-75
2022/03/29 12:04:52;;;;;;;15.88;6.65;;;19.40;92.10;;;;;;5093778;28;20040;-76
2022/03/29 12:07:44;;;;;;;19.50;6.03;;;19.20;92.10;;;;;;5093025;28;20028;-75
2022/03/29 12:10:11;;;;;;;21.25;5.50;;;19.10;91.50;;;;;;5093710;28;20079;-75
2022/03/29 12:12:37;;;;;;;27.48;6.15;;;19.30;91.60;;;;;;5091455;28;20516;-76
2022/03/29 12:15:05;;;;;;;17.10;6.28;;;19.20;91.10;;;;;;5092646;28;20023;-76
2022/03/29 12:17:31;;;;;;;18.58;5.80;;;19.40;91.60;;;;;;5071426;28;20119;-75
2022/03/29 12:19:57;;;;;;;21.20;5.80;;;19.30;91.90;;;;;;5109885;27;20123;-75
2022/03/29 12:22:26;;;;;;;19.67;5.85;;;19.00;91.40;;;;;;5092263;28;20500;-75
2022/03/29 12:24:55;;;;;;;22.33;7.00;;;19.00;91.50;;;;;;5093600;28;20043;-75
2022/03/29 12:27:21;;;;;;;17.33;7.03;;;19.00;92.40;;;;;;5091999;28;20051;-74
2022/03/29 12:29:49;;;;;;;14.25;5.57;;;19.00;93.20;;;;;;5090272;28;20035;-75
2022/03/29 12:32:16;;;;;;;16.02;6.53;;;19.30;94.00;;;;;;5093007;28;20512;-75
2022/03/29 12:34:43;;;;;;;15.75;5.97;;;19.60;93.20;;;;;;5091846;28;20024;-75
2022/03/29 12:37:14;;;;;;;20.83;6.32;;;19.60;93.70;;;;;;5090486;28;20431;-75
2022/03/29 12:39:42;;;;;;;15.40;6.38;;;19.50;93.10;;;;;;5095091;28;20023;-75
2022/03/29 12:42:13;;;;;;;16.80;5.95;;;19.30;93.50;;;;;;5103300;28;20087;-74
2022/03/29 12:44:48;;;;;;;16.67;5.65;;;19.10;92.60;;;;;;5088738;28;20052;-75